< < Back
Terminal Aerodrome Forecast


Current Version              Previous Versions:   1  2  3  4  5  6  7  8  9  

Terminal Aerodrome Forecast

193
FTUS42 KFFC 250551
TAFFTY
TAF
KFTY 250551Z 2506/2606 17003KT P6SM -RA BKN070
     FM251000 15003KT 5SM -SHRA SCT025 BKN045
     FM251400 21008G13KT 5SM -SHRA OVC015
      TEMPO 2514/2518 2SM SHRA BR BKN015
     FM251800 22010G16KT P6SM VCSH BKN012 PROB30 2520/2524 2SM TSRA
      BKN012CB
     FM260000 23009G15KT P6SM BKN050=



Latest METAR

061
SAUS70 KWBC 250600 RRE
MTRFTY
METAR KFTY 250553Z 00000KT 10SM BKN095 BKN120 17/12 A2989 RMK AO2 SLP116
60000 T01670122 10228 20156 58017


USA.gov is the U.S. government's official web portal to all federal, state and local government web resources and services.